createdAt,value
2022-12-24T00:00:58.699Z,-28.1
2022-12-24T00:03:00.210Z,-27.9
2022-12-24T00:07:02.419Z,-28
2022-12-24T00:09:03.518Z,-27.6
2022-12-24T00:11:04.545Z,-27.9
2022-12-24T00:13:05.499Z,-28
2022-12-24T00:15:06.997Z,-28.2
2022-12-24T00:17:08.897Z,-27.9
2022-12-24T00:23:13.147Z,-27.8
2022-12-24T00:25:15.071Z,-27.6
2022-12-24T00:27:15.915Z,-27.8
2022-12-24T00:29:17.211Z,-27.9
2022-12-24T00:31:18.265Z,-27.9
2022-12-24T00:33:24.192Z,-27.7
2022-12-24T00:35:20.720Z,-28
2022-12-24T00:37:22.309Z,-27.9
2022-12-24T00:39:24.185Z,-28
2022-12-24T00:43:27.496Z,-27.8
2022-12-24T00:45:28.403Z,-27.9
2022-12-24T00:47:29.569Z,-27.8
2022-12-24T00:49:31.112Z,-28.1
2022-12-24T00:53:33.325Z,-27.8
2022-12-24T00:55:34.977Z,-27.9
2022-12-24T00:57:36.655Z,-27.9
2022-12-24T00:59:38.353Z,-27.8
2022-12-24T01:03:41.341Z,-28.3
2022-12-24T01:05:42.528Z,-27.8
2022-12-24T01:07:44.048Z,-27.6
2022-12-24T01:09:45.758Z,-27.8
2022-12-24T01:13:48.055Z,-27.8
2022-12-24T01:15:49.128Z,-28
2022-12-24T01:17:50.272Z,-27.9
2022-12-24T01:19:51.649Z,-27.7
2022-12-24T01:21:52.868Z,-27.7
2022-12-24T01:23:54.232Z,-28.2
2022-12-24T01:25:55.342Z,-27.9
2022-12-24T01:27:56.695Z,-27.9
2022-12-24T01:32:00.047Z,-28
2022-12-24T01:36:03.140Z,-27.9
2022-12-24T01:38:04.481Z,-27.7
2022-12-24T01:40:06.152Z,-28
2022-12-24T01:42:07.823Z,-28.2
2022-12-24T01:44:09.290Z,-27.9
2022-12-24T01:46:11.173Z,-27.8
2022-12-24T01:48:12.172Z,-27.7
2022-12-24T01:50:13.391Z,-27.8
2022-12-24T01:52:14.664Z,-28.2
2022-12-24T01:54:15.977Z,-27.9
2022-12-24T01:56:17.391Z,-28
2022-12-24T01:58:19.168Z,-28.2
2022-12-24T02:00:20.215Z,-27.8
2022-12-24T02:02:21.648Z,-27.9
2022-12-24T02:04:22.601Z,-28
2022-12-24T02:06:23.657Z,-27.8
2022-12-24T02:08:25.511Z,-27.9
2022-12-24T02:10:27.046Z,-27.7
2022-12-24T02:12:28.084Z,-27.7
2022-12-24T02:14:29.745Z,-27.8
2022-12-24T02:16:31.625Z,-27.7
2022-12-24T02:18:33.228Z,-28.2
2022-12-24T02:20:34.937Z,-27.9
2022-12-24T02:22:35.997Z,-27.9
2022-12-24T02:24:37.614Z,-28
2022-12-24T02:26:38.757Z,-27.7
2022-12-24T02:30:41.479Z,-27.9
2022-12-24T02:32:42.703Z,-27.9
2022-12-24T02:34:43.711Z,-28
2022-12-24T02:36:45.073Z,-27.9
2022-12-24T02:38:46.423Z,-28
2022-12-24T02:40:47.795Z,-27.8
2022-12-24T02:46:52.049Z,-28
2022-12-24T02:48:53.599Z,-27.9
2022-12-24T02:50:55.230Z,-27.8
2022-12-24T02:52:56.220Z,-28.1
2022-12-24T02:54:57.810Z,-27.8
2022-12-24T02:56:59.230Z,-27.8
2022-12-24T03:01:01.983Z,-28
2022-12-24T03:03:03.608Z,-27.9
2022-12-24T03:05:04.861Z,-27.8
2022-12-24T03:07:06.668Z,-28
2022-12-24T03:11:09.253Z,-28
2022-12-24T03:13:10.417Z,-27.8
2022-12-24T03:15:11.491Z,-28.3
2022-12-24T03:17:12.811Z,-28
2022-12-24T03:19:14.579Z,-27.9
2022-12-24T03:21:15.718Z,-27.7
2022-12-24T03:23:17.400Z,-28
2022-12-24T03:27:20.424Z,-28.1
2022-12-24T03:29:22.043Z,-28
2022-12-24T03:31:23.292Z,-28
2022-12-24T03:33:24.238Z,-27.9
2022-12-24T03:35:25.173Z,-28.1
2022-12-24T03:37:26.208Z,-27.7
2022-12-24T03:39:27.698Z,-28
2022-12-24T03:41:29.546Z,-27.9
2022-12-24T03:43:30.784Z,-27.9
2022-12-24T03:45:31.998Z,-27.8
2022-12-24T03:47:33.614Z,-28.2
2022-12-24T03:49:35.449Z,-28.1
2022-12-24T03:51:37.335Z,-27.8
2022-12-24T03:55:39.643Z,-28
2022-12-24T03:59:42.528Z,-28.1
2022-12-24T04:01:43.649Z,-27.6
2022-12-24T04:03:45.324Z,-27.7
2022-12-24T04:05:46.873Z,-28
2022-12-24T04:07:48.586Z,-27.5
2022-12-24T04:09:50.253Z,-27.6
2022-12-24T04:12:35.089Z,-28
2022-12-24T04:14:36.743Z,-27.9
2022-12-24T04:16:38.397Z,-27.9
2022-12-24T04:22:42.572Z,-28
2022-12-24T04:26:46.063Z,-28.1
2022-12-24T04:28:47.225Z,-27.9
2022-12-24T04:30:48.332Z,-27.8
2022-12-24T04:32:49.965Z,-28
2022-12-24T04:36:52.728Z,-27.8
2022-12-24T04:38:54.489Z,-27.9
2022-12-24T04:40:56.374Z,-27.9
2022-12-24T04:42:58.156Z,-27.7
2022-12-24T04:44:59.979Z,-28.2
2022-12-24T04:47:01.387Z,-27.8
2022-12-24T04:49:02.313Z,-27.8
2022-12-24T04:51:03.629Z,-27.7
2022-12-24T04:53:05.093Z,-27.8
2022-12-24T04:55:06.376Z,-27.8
2022-12-24T04:57:07.736Z,-28
2022-12-24T04:59:09.401Z,-27.9
2022-12-24T05:01:10.720Z,-28
2022-12-24T05:03:12.399Z,-27.6
2022-12-24T05:05:13.262Z,-28
2022-12-24T05:07:14.201Z,-27.9
2022-12-24T05:09:15.262Z,-27.8
2022-12-24T05:11:17.200Z,-27.8
2022-12-24T05:13:18.621Z,-28.2
2022-12-24T05:15:20.455Z,-27.7
2022-12-24T05:21:23.823Z,-28
2022-12-24T05:23:24.808Z,-27.8
2022-12-24T05:25:26.588Z,-27.7
2022-12-24T05:27:27.596Z,-27.8
2022-12-24T05:29:29.131Z,-27.9
2022-12-24T05:31:30.897Z,-27.8
2022-12-24T05:35:34.288Z,-28.2
2022-12-24T05:37:35.567Z,-27.8
2022-12-24T05:39:37.017Z,-28.2
2022-12-24T05:41:38.779Z,-27.6
2022-12-24T05:43:40.255Z,-27.7
2022-12-24T05:45:41.571Z,-27.9
2022-12-24T05:47:43.544Z,-27.7
2022-12-24T05:49:43.504Z,-27.8
2022-12-24T05:51:45.172Z,-27.8
2022-12-24T05:53:46.496Z,-27.8
2022-12-24T05:57:49.430Z,-27.8
2022-12-24T05:59:50.965Z,-27.8
2022-12-24T06:01:52.862Z,-28
2022-12-24T06:03:54.194Z,-28
2022-12-24T06:05:55.438Z,-27.9
2022-12-24T06:07:57.151Z,-27.7
2022-12-24T06:09:58.553Z,-28
2022-12-24T06:12:00.218Z,-27.8
2022-12-24T06:14:01.375Z,-27.8
2022-12-24T06:20:04.959Z,-28.3
2022-12-24T06:22:06.433Z,-27.8
2022-12-24T06:24:07.558Z,-28.1
2022-12-24T06:26:08.729Z,-28.2
2022-12-24T06:28:10.311Z,-28.2
2022-12-24T06:30:11.867Z,-28.1
2022-12-24T06:34:14.831Z,-28
2022-12-24T06:36:17.635Z,-27.6
2022-12-24T06:38:18.099Z,-27.8
2022-12-24T06:40:19.084Z,-27.8
2022-12-24T06:46:23.405Z,-28
2022-12-24T06:48:24.733Z,-27.7
2022-12-24T06:50:25.916Z,-27.8
2022-12-24T06:52:27.258Z,-28
2022-12-24T06:54:28.951Z,-27.7
2022-12-24T06:56:30.413Z,-28
2022-12-24T07:00:33.310Z,-27.9
2022-12-24T07:02:34.950Z,-28.2
2022-12-24T07:04:36.253Z,-27.9
2022-12-24T07:06:38.149Z,-27.9
2022-12-24T07:08:39.345Z,-28.2
2022-12-24T07:10:40.517Z,-27.8
2022-12-24T07:12:42.308Z,-28
2022-12-24T07:14:43.846Z,-28.1
2022-12-24T07:16:45.615Z,-27.8
2022-12-24T07:18:46.763Z,-27.7
2022-12-24T07:20:48.395Z,-27.6
2022-12-24T07:22:50.293Z,-28
2022-12-24T07:24:52.174Z,-27.9
2022-12-24T07:26:53.410Z,-27.6
2022-12-24T07:28:55.026Z,-27.9
2022-12-24T07:32:58.387Z,-27.8
2022-12-24T07:35:00.325Z,-28
2022-12-24T07:37:01.776Z,-27.7
2022-12-24T07:39:02.836Z,-27.8
2022-12-24T07:43:05.681Z,-28
2022-12-24T07:45:06.926Z,-27.7
2022-12-24T07:47:08.112Z,-27.9
2022-12-24T07:49:09.766Z,-27.8
2022-12-24T07:51:10.911Z,-27.8
2022-12-24T07:53:12.206Z,-28
2022-12-24T07:55:13.393Z,-28
2022-12-24T07:57:14.971Z,-27.9
2022-12-24T07:59:16.516Z,-28
2022-12-24T08:01:17.649Z,-27.8
2022-12-24T08:03:19.346Z,-27.9
2022-12-24T08:05:20.807Z,-28
2022-12-24T08:07:22.405Z,-28.2
2022-12-24T08:09:23.404Z,-27.9
2022-12-24T08:11:24.734Z,-28
2022-12-24T08:15:27.111Z,-27.9
2022-12-24T08:17:32.074Z,-27.8
2022-12-24T08:19:30.726Z,-28
2022-12-24T08:21:32.397Z,-27.8
2022-12-24T08:23:33.493Z,-27.7
2022-12-24T08:27:36.345Z,-27.8
2022-12-24T08:29:37.401Z,-27.8
2022-12-24T08:31:38.524Z,-24.2
2022-12-24T08:33:40.053Z,-22.6
2022-12-24T08:35:40.992Z,-27.9
2022-12-24T08:37:42.203Z,-28
2022-12-24T08:43:46.500Z,-20.7
2022-12-24T08:45:48.021Z,-12.6
2022-12-24T08:47:48.860Z,-5.8
2022-12-24T08:49:49.952Z,13.7
2022-12-24T08:51:51.386Z,-3.8
2022-12-24T08:53:52.433Z,-18
2022-12-24T08:57:55.633Z,-23.4
2022-12-24T08:59:57.231Z,-22
2022-12-24T09:01:58.253Z,-24.9
2022-12-24T09:04:00.014Z,-28
2022-12-24T09:08:02.820Z,-26.5
2022-12-24T09:10:03.952Z,-15.8
2022-12-24T09:14:07.265Z,81.3
2022-12-24T09:16:09.097Z,82.7
2022-12-24T09:18:10.225Z,82.6
2022-12-24T09:20:12.311Z,82.9
2022-12-24T09:24:14.901Z,82.6
2022-12-24T09:26:15.775Z,82.9
2022-12-24T09:28:18.166Z,82.7
2022-12-24T09:30:19.097Z,82.6
2022-12-24T09:34:26.676Z,29.1
2022-12-24T09:36:23.990Z,82.2
2022-12-24T09:40:26.653Z,21.8
2022-12-24T09:42:27.536Z,43
2022-12-24T09:44:28.916Z,82.7
2022-12-24T09:46:30.263Z,82.6
2022-12-24T09:48:31.863Z,82.7
2022-12-24T09:52:34.359Z,83
2022-12-24T09:56:37.084Z,83.1
2022-12-24T09:58:38.721Z,82.5
2022-12-24T10:00:43.257Z,83
2022-12-24T10:02:41.436Z,82.8
2022-12-24T10:08:44.703Z,26.2
2022-12-24T10:10:45.687Z,18.4
2022-12-24T10:12:49.652Z,0.6
2022-12-24T10:14:48.765Z,-7.1
2022-12-24T10:16:50.176Z,-5.5
2022-12-24T10:18:51.087Z,-3.1
2022-12-24T10:20:52.367Z,-8
2022-12-24T10:22:54.124Z,-7.9
2022-12-24T10:24:55.303Z,4.1
2022-12-24T10:26:56.899Z,22.7
2022-12-24T10:28:58.114Z,21.5
2022-12-24T10:30:59.405Z,12.3
2022-12-24T10:33:01.013Z,16
2022-12-24T10:35:02.262Z,20.29
2022-12-24T10:37:03.201Z,60.2
2022-12-24T10:39:04.490Z,26.1
2022-12-24T10:41:06.140Z,23.6
2022-12-24T10:43:07.839Z,40.8
2022-12-24T10:45:09.281Z,36.4
2022-12-24T10:47:10.721Z,39.7
2022-12-24T10:49:11.752Z,54.9
2022-12-24T10:51:13.225Z,82.6
2022-12-24T10:53:14.260Z,29.6
2022-12-24T10:55:15.977Z,23.6
2022-12-24T10:55:59.721Z,21.3
2022-12-24T11:02:04.650Z,19.1
2022-12-24T11:04:05.719Z,19.7
2022-12-24T11:06:07.621Z,26.8
2022-12-24T11:08:09.414Z,32.9
2022-12-24T11:10:11.210Z,22.3
2022-12-24T11:12:12.262Z,9.89
2022-12-24T11:14:13.658Z,21.1
2022-12-24T11:16:15.391Z,34.8
2022-12-24T11:18:16.262Z,29.7
2022-12-24T11:22:18.362Z,21.2
2022-12-24T11:26:21.001Z,-0.8
2022-12-24T11:28:22.134Z,18.9
2022-12-24T11:32:25.313Z,14.2
2022-12-24T11:34:26.738Z,-13.9
2022-12-24T11:36:28.076Z,-20.8
2022-12-24T11:38:29.118Z,4.4
2022-12-24T11:42:31.616Z,13.8
2022-12-24T11:44:32.852Z,28.7
2022-12-24T11:46:34.697Z,15.3
2022-12-24T11:48:36.248Z,42.3
2022-12-24T11:50:37.292Z,37.59
2022-12-24T11:52:38.381Z,36.9
2022-12-24T11:54:39.853Z,82.6
2022-12-24T11:56:40.966Z,82.6
2022-12-24T11:58:42.043Z,27.7
2022-12-24T12:00:43.475Z,38.9
2022-12-24T12:02:44.816Z,17.7
2022-12-24T12:04:46.204Z,12.3
2022-12-24T12:06:47.458Z,12.6
2022-12-24T12:08:48.529Z,20.29
2022-12-24T12:10:49.636Z,22.6
2022-12-24T12:12:50.607Z,33.5
2022-12-24T12:14:51.788Z,34.9
2022-12-24T12:16:52.894Z,39.7
2022-12-24T12:18:54.023Z,55.3
2022-12-24T12:20:55.469Z,62.9
2022-12-24T12:22:56.805Z,82.7
2022-12-24T12:26:59.609Z,82.4
2022-12-24T12:29:01.355Z,33.4
2022-12-24T12:31:02.571Z,38.9
2022-12-24T12:33:04.273Z,82.8
2022-12-24T12:35:05.933Z,82.4
2022-12-24T12:37:11.130Z,83
2022-12-24T12:43:14.389Z,82.6
2022-12-24T12:45:13.153Z,82.9
2022-12-24T12:47:14.942Z,82.9
2022-12-24T12:49:15.926Z,82.7
2022-12-24T12:51:17.568Z,15.8
2022-12-24T12:53:19.067Z,16.79
2022-12-24T12:55:24.271Z,10.9
2022-12-24T12:57:21.548Z,5.7
2022-12-24T12:59:23.084Z,11.3
2022-12-24T13:03:26.058Z,19.5
2022-12-24T13:05:27.269Z,10.1
2022-12-24T13:07:32.768Z,0.1
2022-12-24T13:09:30.810Z,-14.3
2022-12-24T13:11:31.769Z,-10.1
2022-12-24T13:13:33.602Z,-22.3
2022-12-24T13:15:34.852Z,-27.7
2022-12-24T13:17:36.348Z,-21.9
2022-12-24T13:19:38.386Z,-8.2
2022-12-24T13:25:41.643Z,20.29
2022-12-24T13:27:43.422Z,16.29
2022-12-24T13:29:44.982Z,24
2022-12-24T13:31:46.540Z,82.7
2022-12-24T13:33:48.089Z,13.7
2022-12-24T13:35:49.596Z,17.6
2022-12-24T13:37:51.035Z,10.9
2022-12-24T13:39:52.429Z,21.2
2022-12-24T13:41:53.798Z,7
2022-12-24T13:45:56.536Z,11.2
2022-12-24T13:49:58.698Z,0.5
2022-12-24T13:52:00.090Z,8.6
2022-12-24T13:54:01.319Z,9.2
2022-12-24T13:56:02.428Z,53
2022-12-24T13:58:03.783Z,33.8
2022-12-24T14:00:04.759Z,48.4
2022-12-24T14:02:06.458Z,2.8
2022-12-24T14:04:07.529Z,4.19
2022-12-24T14:06:09.300Z,-0.1
2022-12-24T14:08:10.692Z,-6.4
2022-12-24T14:10:11.926Z,-15.7
2022-12-24T14:12:16.339Z,-21.9
2022-12-24T14:14:14.614Z,-28
2022-12-24T14:16:16.254Z,-27.9
2022-12-24T14:18:17.663Z,-27.8
2022-12-24T14:20:19.093Z,-28
2022-12-24T14:22:20.965Z,-27.8
2022-12-24T14:24:22.764Z,-27.8
2022-12-24T14:26:24.216Z,-28.1
2022-12-24T14:28:25.342Z,-27.7
2022-12-24T14:30:26.334Z,-28.3
2022-12-24T14:34:29.872Z,-28.1
2022-12-24T14:36:31.737Z,-27.8
2022-12-24T14:38:32.991Z,-27.8
2022-12-24T14:40:34.220Z,-27.8
2022-12-24T14:42:35.886Z,-28
2022-12-24T14:44:37.074Z,-28
2022-12-24T14:46:38.479Z,-28
2022-12-24T14:48:40.256Z,-28.2
2022-12-24T14:50:41.893Z,-27.8
2022-12-24T14:53:04.515Z,-28
2022-12-24T14:54:44.399Z,-28
2022-12-24T14:56:46.227Z,-27.9
2022-12-24T14:58:47.853Z,-28.2
2022-12-24T15:00:49.600Z,-27.9
2022-12-24T15:02:50.694Z,-27.8
2022-12-24T15:04:51.906Z,-27.8
2022-12-24T15:06:53.369Z,-28
2022-12-24T15:08:54.276Z,-28.2
2022-12-24T15:10:55.499Z,-28
2022-12-24T15:12:57.069Z,-28.1
2022-12-24T15:14:58.675Z,-28.3
2022-12-24T15:16:59.873Z,-28.2
2022-12-24T15:19:01.023Z,-27.9
2022-12-24T15:21:04.465Z,-27.9
2022-12-24T15:23:03.502Z,-28.1
2022-12-24T15:25:04.607Z,-28
2022-12-24T15:27:05.908Z,-28
2022-12-24T15:29:06.887Z,-27.8
2022-12-24T15:31:08.559Z,-27.8
2022-12-24T15:33:09.937Z,-27.9
2022-12-24T15:35:11.670Z,-27.8
2022-12-24T15:37:13.517Z,-27.8
2022-12-24T15:39:14.615Z,-28.2
2022-12-24T15:41:16.378Z,-27.8
2022-12-24T15:43:17.410Z,-27.9
2022-12-24T15:49:21.997Z,-28
2022-12-24T15:51:23.195Z,-28
2022-12-24T15:53:24.574Z,-28.2
2022-12-24T15:55:25.732Z,-27.8
2022-12-24T15:57:27.304Z,-28
2022-12-24T15:59:28.931Z,-27.7
2022-12-24T16:03:31.358Z,-28.1
2022-12-24T16:05:32.700Z,-27.9
2022-12-24T16:07:33.753Z,-28
2022-12-24T16:09:35.208Z,-27.8
2022-12-24T16:15:39.942Z,-28
2022-12-24T16:17:40.954Z,-27.9
2022-12-24T16:19:42.425Z,-28.2
2022-12-24T16:21:44.375Z,-27.9
2022-12-24T16:23:45.943Z,-27.9
2022-12-24T16:25:47.101Z,-28
2022-12-24T16:27:48.918Z,-27.8
2022-12-24T16:29:50.407Z,-28.2
2022-12-24T16:31:51.767Z,-27.5
2022-12-24T16:33:53.310Z,-27.9
2022-12-24T16:35:55.162Z,-27.9
2022-12-24T16:39:57.834Z,-27.9
2022-12-24T16:41:59.426Z,-27.8
2022-12-24T16:44:00.554Z,-27.7
2022-12-24T16:46:02.288Z,-27.9
2022-12-24T16:48:03.161Z,-27.7
2022-12-24T16:50:04.607Z,-27.9
2022-12-24T16:52:06.463Z,-27.8
2022-12-24T16:54:08.062Z,-27.7
2022-12-24T16:56:09.144Z,-28
2022-12-24T16:58:10.405Z,-27.7
2022-12-24T17:02:14.897Z,-27.7
2022-12-24T17:04:14.256Z,-27.9
2022-12-24T17:06:15.977Z,-27.9
2022-12-24T17:08:17.051Z,-27.9
2022-12-24T17:14:21.497Z,-28.3
2022-12-24T17:18:24.364Z,-27.9
2022-12-24T17:20:25.562Z,-27.9
2022-12-24T17:22:26.902Z,-27.9
2022-12-24T17:24:28.444Z,-27.9
2022-12-24T17:26:30.054Z,-27.9
2022-12-24T17:28:31.865Z,-27.7
2022-12-24T17:30:33.467Z,-28
2022-12-24T17:32:35.074Z,-27.9
2022-12-24T17:34:36.130Z,-28.2
2022-12-24T17:36:37.885Z,-27.5
2022-12-24T17:38:39.195Z,-28
2022-12-24T17:40:40.915Z,-28.1
2022-12-24T17:45:27.015Z,-28
2022-12-24T17:47:28.537Z,-28
2022-12-24T17:49:29.759Z,-27.8
2022-12-24T17:51:31.429Z,-27.9
2022-12-24T17:55:33.635Z,-27.9
2022-12-24T17:57:35.476Z,-27.7
2022-12-24T17:59:36.862Z,-27.9
2022-12-24T18:01:38.392Z,-28.1
2022-12-24T18:07:42.430Z,-27.8
2022-12-24T18:09:43.553Z,-28.3
2022-12-24T18:11:44.798Z,-28
2022-12-24T18:13:46.147Z,-27.9
2022-12-24T18:15:48.120Z,-28
2022-12-24T18:17:49.524Z,-28
2022-12-24T18:19:51.465Z,-27.9
2022-12-24T18:21:52.463Z,-27.9
2022-12-24T18:23:53.569Z,-27.8
2022-12-24T18:25:55.337Z,-28.2
2022-12-24T18:27:56.695Z,-27.9
2022-12-24T18:31:59.911Z,-27.8
2022-12-24T18:34:00.799Z,-27.9
2022-12-24T18:36:01.758Z,-27.9
2022-12-24T18:38:03.248Z,-27.8
2022-12-24T18:40:04.792Z,-27.9
2022-12-24T18:42:05.784Z,-27.9
2022-12-24T18:44:07.310Z,-28.3
2022-12-24T18:46:08.561Z,-27.7
2022-12-24T18:48:09.727Z,-27.9
2022-12-24T18:50:11.548Z,-27.7
2022-12-24T18:52:15.389Z,-28
2022-12-24T18:54:14.682Z,-27.9
2022-12-24T18:56:16.239Z,-28.2
2022-12-24T18:58:17.975Z,-27.9
2022-12-24T19:00:19.771Z,-28
2022-12-24T19:02:20.816Z,-27.7
2022-12-24T19:04:21.858Z,-27.8
2022-12-24T19:06:23.008Z,-27.8
2022-12-24T19:08:55.547Z,-28
2022-12-24T19:10:25.443Z,-27.7
2022-12-24T19:12:26.893Z,-27.9
2022-12-24T19:14:28.454Z,-27.9
2022-12-24T19:16:30.430Z,-27.6
2022-12-24T19:20:33.007Z,-28.2
2022-12-24T19:22:34.365Z,-27.9
2022-12-24T19:24:36.025Z,-28.2
2022-12-24T19:26:37.046Z,-28.3
2022-12-24T19:28:38.005Z,-27.9
2022-12-24T19:32:41.076Z,-27.9
2022-12-24T19:34:42.397Z,-28.2
2022-12-24T19:36:44.063Z,-28
2022-12-24T19:38:45.899Z,-27.9
2022-12-24T19:40:46.881Z,-28.2
2022-12-24T19:42:48.119Z,-27.9
2022-12-24T19:44:49.552Z,-27.9
2022-12-24T19:46:51.406Z,-27.9
2022-12-24T19:48:53.159Z,-28
2022-12-24T19:50:54.974Z,-27.9
2022-12-24T19:52:56.173Z,-27.9
2022-12-24T19:54:57.821Z,-27.9
2022-12-24T19:56:59.077Z,-27.8
2022-12-24T19:59:00.213Z,-28
2022-12-24T20:01:02.110Z,-27.9
2022-12-24T20:03:03.606Z,-28.2
2022-12-24T20:05:05.422Z,-28
2022-12-24T20:07:07.347Z,-28.3
2022-12-24T20:09:09.217Z,-27.8
2022-12-24T20:11:10.801Z,-28
2022-12-24T20:15:14.084Z,-28
2022-12-24T20:17:15.743Z,-28.2
2022-12-24T20:19:17.500Z,-28
2022-12-24T20:21:19.092Z,-27.6
2022-12-24T20:23:20.567Z,-28.2
2022-12-24T20:25:21.614Z,-27.8
2022-12-24T20:29:24.219Z,-28.1
2022-12-24T20:31:25.923Z,-28.2
2022-12-24T20:33:26.781Z,-27.9
2022-12-24T20:35:28.376Z,-27.8
2022-12-24T20:37:29.582Z,-27.8
2022-12-24T20:39:30.986Z,-28
2022-12-24T20:41:32.661Z,-27.8
2022-12-24T20:43:36.285Z,-28.1
2022-12-24T20:45:35.477Z,-27.8
2022-12-24T20:47:36.516Z,-28.3
2022-12-24T20:51:38.999Z,-27.8
2022-12-24T20:53:40.335Z,-27.9
2022-12-24T20:55:41.715Z,-28.2
2022-12-24T20:57:43.425Z,-28
2022-12-24T20:59:44.939Z,-28
2022-12-24T21:01:46.727Z,-27.9
2022-12-24T21:03:48.484Z,-28
2022-12-24T21:05:50.358Z,-28.1
2022-12-24T21:07:51.282Z,-28
2022-12-24T21:13:54.742Z,-28
2022-12-24T21:15:55.783Z,-27.9
2022-12-24T21:17:57.716Z,-28
2022-12-24T21:19:58.715Z,-27.9
2022-12-24T21:21:59.725Z,-27.7
2022-12-24T21:24:01.385Z,-27.8
2022-12-24T21:28:03.843Z,-27.9
2022-12-24T21:30:05.352Z,-28
2022-12-24T21:32:06.458Z,-28.4
2022-12-24T21:34:07.428Z,-27.9
2022-12-24T21:40:12.298Z,-28
2022-12-24T21:42:13.339Z,-27.9
2022-12-24T21:44:14.849Z,-27.8
2022-12-24T21:46:15.929Z,-28
2022-12-24T21:48:17.623Z,-27.6
2022-12-24T21:50:18.723Z,-27.7
2022-12-24T21:52:19.758Z,-27.9
2022-12-24T21:54:21.061Z,-28.1
2022-12-24T21:56:22.255Z,-27.7
2022-12-24T22:00:25.966Z,-28.1
2022-12-24T22:02:27.938Z,-28
2022-12-24T22:04:29.219Z,-28.1
2022-12-24T22:06:30.783Z,-28
2022-12-24T22:10:33.508Z,-28.1
2022-12-24T22:12:34.735Z,-27.8
2022-12-24T22:16:37.462Z,-27.7
2022-12-24T22:18:38.590Z,-27.9
2022-12-24T22:20:39.588Z,-27.8
2022-12-24T22:22:40.930Z,-28.4
2022-12-24T22:24:42.388Z,-27.9
2022-12-24T22:26:43.602Z,-28.2
2022-12-24T22:28:44.838Z,-28
2022-12-24T22:30:46.739Z,-28.3
2022-12-24T22:32:48.122Z,-28.3
2022-12-24T22:34:49.900Z,-27.9
2022-12-24T22:36:51.544Z,-27.7
2022-12-24T22:38:52.687Z,-28.3
2022-12-24T22:40:54.578Z,-28.2
2022-12-24T22:42:55.687Z,-27.7
2022-12-24T22:44:56.871Z,-27.7
2022-12-24T22:46:57.924Z,-28
2022-12-24T22:48:59.049Z,-27.6
2022-12-24T22:51:00.972Z,-27.9
2022-12-24T22:53:01.892Z,-27.9
2022-12-24T22:55:02.915Z,-27.9
2022-12-24T22:59:06.466Z,-27.8
2022-12-24T23:01:07.616Z,-27.9
2022-12-24T23:03:08.919Z,-28
2022-12-24T23:05:09.962Z,-28
2022-12-24T23:11:14.187Z,-27.8
2022-12-24T23:13:15.635Z,-27.9
2022-12-24T23:15:17.530Z,-27.9
2022-12-24T23:17:18.796Z,-27.8
2022-12-24T23:19:20.088Z,-28.1
2022-12-24T23:21:21.905Z,-28
2022-12-24T23:23:23.352Z,-27.9
2022-12-24T23:25:24.715Z,-28.1
2022-12-24T23:27:26.429Z,-28.2
2022-12-24T23:29:27.365Z,-28
2022-12-24T23:31:29.046Z,-28.2
2022-12-24T23:33:30.886Z,-27.8
2022-12-24T23:35:32.414Z,-27.8
2022-12-24T23:37:35.171Z,-28
2022-12-24T23:39:35.255Z,-27.9
2022-12-24T23:41:36.856Z,-28.2
2022-12-24T23:43:38.504Z,-27.8
2022-12-24T23:45:39.865Z,-28
2022-12-24T23:47:41.298Z,-27.9
2022-12-24T23:49:43.254Z,-28
2022-12-24T23:51:44.349Z,-27.8
2022-12-24T23:53:46.149Z,-28
2022-12-24T23:55:47.583Z,-27.8
2022-12-24T23:57:49.320Z,-27.8
2022-12-24T23:59:50.484Z,-28
